TimeEDT,TemperatureF,Dew PointF,Humidity,Sea Level PressureIn,VisibilityMPH,Wind Direction,Wind SpeedMPH,Gust SpeedMPH,PrecipitationIn,Events,Conditions,WindDirDegrees,DateUTC
12:00 AM,44.6,44.6,100,29.36,15.0,North,6.9,-,N/A,,Overcast,350,2012-10-31 04:00:00
12:26 AM,44.6,44.6,100,29.36,8.0,North,9.2,-,N/A,,Overcast,360,2012-10-31 04:26:00
12:40 AM,44.6,42.8,93,29.36,8.0,North,5.8,-,N/A,,Overcast,10,2012-10-31 04:40:00
1:00 AM,44.6,42.8,93,29.37,2.5,East,8.1,-,N/A,,Light Drizzle,90,2012-10-31 05:00:00
1:29 AM,42.8,42.8,100,29.37,8.0,East,11.5,-,N/A,,Light Drizzle,80,2012-10-31 05:29:00
1:52 AM,42.8,42.8,100,29.37,8.0,ENE,6.9,-,N/A,,Light Drizzle,60,2012-10-31 05:52:00
2:00 AM,43,42,97,29.38,7,ENE,6.9,,,,Overcast,60,2012-10-31 06:00:00
2:00 AM,42.8,42.8,100,29.37,8.0,NE,8.1,-,N/A,,Light Drizzle,50,2012-10-31 06:00:00
2:35 AM,42.8,42.8,100,29.38,10.0,NE,6.9,-,N/A,Rain,Light Rain,50,2012-10-31 06:35:00
3:00 AM,42.8,42.8,100,29.39,8.0,ENE,6.9,-,N/A,Rain,Light Rain,60,2012-10-31 07:00:00
3:45 AM,42.8,41.0,93,29.39,8.0,NE,5.8,-,N/A,,Light Drizzle,40,2012-10-31 07:45:00
4:00 AM,42.8,42.8,100,29.39,6.0,NE,4.6,-,N/A,,Light Drizzle,40,2012-10-31 08:00:00
4:37 AM,42.8,41.0,93,29.40,8.0,NE,4.6,-,N/A,,Light Drizzle,40,2012-10-31 08:37:00
5:00 AM,42.8,41.0,93,29.41,8.0,NE,4.6,-,N/A,Rain,Light Rain,40,2012-10-31 09:00:00
6:00 AM,42.8,42.8,100,29.42,5.0,North,3.5,-,N/A,Rain,Light Rain,10,2012-10-31 10:00:00
6:37 AM,42.8,41.0,93,29.42,8.0,North,5.8,-,N/A,Rain,Light Rain,350,2012-10-31 10:37:00
7:00 AM,42.8,41.0,93,29.43,12.0,North,4.6,-,N/A,,Overcast,360,2012-10-31 11:00:00
7:42 AM,42.8,41.0,93,29.43,6.0,NNW,4.6,-,N/A,Rain,Light Rain,340,2012-10-31 11:42:00
8:00 AM,42,42,98,29.44,6,North,4.6,,,,Overcast,350,2012-10-31 12:00:00
8:00 AM,42.8,41.0,93,29.44,6.0,North,3.5,-,N/A,Rain,Light Rain,350,2012-10-31 12:00:00
9:00 AM,42.8,41.0,93,29.45,8.0,North,3.5,-,N/A,,Overcast,10,2012-10-31 13:00:00
9:56 AM,42.8,42.8,100,29.46,8.0,WNW,5.8,-,N/A,Rain,Light Rain,300,2012-10-31 13:56:00
10:00 AM,42.8,42.8,100,29.46,8.0,NW,4.6,-,N/A,Rain,Light Rain,320,2012-10-31 14:00:00
11:00 AM,44.6,42.8,93,29.45,10.0,NW,4.6,-,N/A,Rain,Light Rain,320,2012-10-31 15:00:00
12:00 PM,44.6,42.8,93,29.46,12.0,NNW,6.9,-,N/A,Rain,Light Rain,340,2012-10-31 16:00:00
1:00 PM,46.4,42.8,87,29.46,12.0,NW,6.9,-,N/A,Rain,Light Rain,320,2012-10-31 17:00:00
2:00 PM,47,44,83,29.46,7,NNW,6.9,,,,Overcast,330,2012-10-31 18:00:00
2:00 PM,46.4,42.8,87,29.46,8.0,NW,6.9,-,N/A,Rain,Light Rain,320,2012-10-31 18:00:00
3:00 PM,46.4,44.6,93,29.46,8.0,NW,10.4,-,N/A,Rain,Light Rain,310,2012-10-31 19:00:00
3:09 PM,46.4,44.6,93,29.46,8.0,WNW,10.4,-,N/A,Rain,Light Rain,300,2012-10-31 19:09:00
3:21 PM,44.6,44.6,100,29.47,8.0,WNW,15.0,-,N/A,Rain,Light Rain,300,2012-10-31 19:21:00
4:00 PM,44.6,42.8,93,29.48,8.0,WNW,12.7,18.4,N/A,Rain,Light Rain,300,2012-10-31 20:00:00
4:37 PM,44.6,42.8,93,29.48,4.0,NW,11.5,21.9,N/A,Rain,Light Rain,310,2012-10-31 20:37:00
4:47 PM,42.8,42.8,100,29.49,2.0,WNW,12.7,20.7,N/A,Rain,Light Rain,300,2012-10-31 20:47:00
5:00 PM,42.8,42.8,100,29.49,2.0,WNW,16.1,-,N/A,Rain,Light Rain,300,2012-10-31 21:00:00
5:24 PM,42.8,42.8,100,29.49,5.0,WNW,12.7,19.6,N/A,Rain,Light Rain,300,2012-10-31 21:24:00
5:43 PM,42.8,41.0,93,29.50,2.5,WNW,12.7,21.9,N/A,Rain,Light Rain,300,2012-10-31 21:43:00
6:00 PM,42.8,41.0,93,29.51,2.5,WNW,13.8,20.7,N/A,Rain,Light Rain,300,2012-10-31 22:00:00
6:28 PM,41.0,41.0,100,29.52,4.0,WNW,13.8,23.0,N/A,Rain,Light Rain,300,2012-10-31 22:28:00
7:00 PM,41.0,39.2,93,29.53,4.0,WNW,15.0,24.2,N/A,Rain,Light Rain,290,2012-10-31 23:00:00
8:00 PM,41,39,92,29.54,4,WNW,13.8,,,,Overcast,290,2012-11-01 00:00:00
8:00 PM,41.0,39.2,93,29.54,4.0,WNW,11.5,20.7,N/A,Rain,Light Rain,290,2012-11-01 00:00:00
9:00 PM,41.0,39.2,93,29.54,6.0,West,10.4,19.6,N/A,Rain,Light Rain,280,2012-11-01 01:00:00
10:00 PM,41.0,39.2,93,29.54,5.0,WNW,12.7,18.4,N/A,Rain,Light Rain,290,2012-11-01 02:00:00
11:00 PM,41.0,41.0,100,29.55,6.0,NW,13.8,20.7,N/A,Rain,Light Rain,310,2012-11-01 03:00:00
11:59 PM,41.0,39.2,93,29.54,3.0,WNW,15.0,23.0,N/A,Rain,Light Rain,300,2012-11-01 03:59:00